createdAt,value
2022-10-02T00:02:34.503Z,100233.53
2022-10-02T00:05:12.344Z,100239.72
2022-10-02T00:08:18.908Z,100240.66
2022-10-02T00:10:55.089Z,100234.56
2022-10-02T00:13:31.153Z,100227.56
2022-10-02T00:15:58.126Z,100224.09
2022-10-02T00:18:33.022Z,100236.47
2022-10-02T00:21:02.474Z,100239.97
2022-10-02T00:23:43.209Z,100235.53
2022-10-02T00:26:18.671Z,100253.94
2022-10-02T00:28:56.025Z,100246.09
2022-10-02T00:31:46.809Z,100255.84
2022-10-02T00:34:35.431Z,100260.16
2022-10-02T00:37:28.606Z,100259.88
2022-10-02T00:40:33.118Z,100256.41
2022-10-02T00:43:03.769Z,100264.69
2022-10-02T00:45:33.392Z,100278.03
2022-10-02T00:48:18.093Z,100286.12
2022-10-02T00:51:17.153Z,100278.28
2022-10-02T00:53:56.165Z,100282.66
2022-10-02T00:56:22.879Z,100296.62
2022-10-02T00:58:58.864Z,100299.28
2022-10-02T01:01:41.522Z,100281.47
2022-10-02T01:04:13.392Z,100286.12
2022-10-02T01:06:40.725Z,100282.78
2022-10-02T01:09:07.743Z,100272.19
2022-10-02T01:11:35.211Z,100287.38
2022-10-02T01:14:02.199Z,100287.59
2022-10-02T01:16:29.066Z,100278.91
2022-10-02T01:18:55.955Z,100277.31
2022-10-02T01:21:49.156Z,100281.88
2022-10-02T01:24:34.295Z,100292.59
2022-10-02T01:27:01.138Z,100306.97
2022-10-02T01:29:29.015Z,100308.84
2022-10-02T01:31:56.547Z,100317.91
2022-10-02T01:34:24.175Z,100330.38
2022-10-02T01:36:50.967Z,100327.91
2022-10-02T01:39:17.974Z,100335.72
2022-10-02T01:41:45.387Z,100333.13
2022-10-02T01:44:14.730Z,100334.09
2022-10-02T01:47:09.259Z,100339.44
2022-10-02T01:49:38.692Z,100347.47
2022-10-02T01:52:21.104Z,100353.78
2022-10-02T01:55:06.312Z,100352.91
2022-10-02T01:57:59.328Z,100346.78
2022-10-02T02:00:30.336Z,100351.28
2022-10-02T02:03:12.045Z,100348.53
2022-10-02T02:05:53.593Z,100361.00
2022-10-02T02:08:45.345Z,100358.25
2022-10-02T02:11:16.271Z,100353.88
2022-10-02T02:13:49.296Z,100361.72
2022-10-02T02:16:19.044Z,100360.66
2022-10-02T02:19:00.040Z,100366.78
2022-10-02T02:21:33.553Z,100371.91
2022-10-02T02:24:04.606Z,100376.03
2022-10-02T02:26:33.150Z,100375.81
2022-10-02T02:29:07.696Z,100384.59
2022-10-02T02:31:48.052Z,100384.50
2022-10-02T02:34:21.285Z,100386.00
2022-10-02T02:36:55.239Z,100384.22
2022-10-02T02:39:36.685Z,100375.22
2022-10-02T02:42:07.409Z,100383.25
2022-10-02T02:44:42.817Z,100400.72
2022-10-02T02:47:15.035Z,100393.63
2022-10-02T02:49:52.422Z,100397.97
2022-10-02T02:52:28.109Z,100397.91
2022-10-02T02:55:10.004Z,100412.81
2022-10-02T02:58:01.522Z,100410.22
2022-10-02T03:00:28.362Z,100414.66
2022-10-02T03:02:55.701Z,100421.50
2022-10-02T03:05:27.101Z,100419.69
2022-10-02T03:07:56.819Z,100426.69
2022-10-02T03:10:33.793Z,100428.41
2022-10-02T03:13:06.435Z,100431.94
2022-10-02T03:15:51.709Z,100421.25
2022-10-02T03:18:46.139Z,100425.59
2022-10-02T03:21:27.014Z,100443.38
2022-10-02T03:24:28.498Z,100439.84
2022-10-02T03:27:23.070Z,100436.25
2022-10-02T03:30:02.462Z,100437.19
2022-10-02T03:32:31.048Z,100444.28
2022-10-02T03:34:59.878Z,100452.25
2022-10-02T03:37:28.607Z,100437.19
2022-10-02T03:40:01.234Z,100453.13
2022-10-02T03:42:32.259Z,100442.50
2022-10-02T03:44:59.113Z,100446.13
2022-10-02T03:47:25.905Z,100452.22
2022-10-02T03:49:53.239Z,100447.72
2022-10-02T03:52:22.543Z,100453.94
2022-10-02T03:54:55.748Z,100462.78
2022-10-02T03:57:24.754Z,100463.81
2022-10-02T04:00:02.793Z,100457.63
2022-10-02T04:02:32.383Z,100461.38
2022-10-02T04:05:24.625Z,100451.91
2022-10-02T04:07:57.231Z,100461.00
2022-10-02T04:10:33.385Z,100463.03
2022-10-02T04:13:09.760Z,100467.50
2022-10-02T04:16:07.653Z,100473.75
2022-10-02T04:19:13.055Z,100474.81
2022-10-02T04:21:52.395Z,100477.59
2022-10-02T04:24:26.887Z,100485.69
2022-10-02T04:27:12.624Z,100478.69
2022-10-02T04:29:47.736Z,100485.59
2022-10-02T04:32:17.042Z,100492.00
2022-10-02T04:34:43.872Z,100491.19
2022-10-02T04:37:27.513Z,100499.19
2022-10-02T04:40:10.604Z,100514.34
2022-10-02T04:42:51.719Z,100504.25
2022-10-02T04:45:34.031Z,100507.81
2022-10-02T04:48:31.430Z,100523.84
2022-10-02T04:51:27.200Z,100522.94
2022-10-02T04:54:22.935Z,100533.66
2022-10-02T04:56:55.479Z,100535.41
2022-10-02T04:59:43.470Z,100533.69
2022-10-02T05:02:31.171Z,100536.25
2022-10-02T05:05:12.691Z,100546.59
2022-10-02T05:07:57.430Z,100549.25
2022-10-02T05:10:42.631Z,100545.72
2022-10-02T05:13:44.842Z,100553.59
2022-10-02T05:16:33.022Z,100553.62
2022-10-02T05:19:17.524Z,100553.44
2022-10-02T05:22:02.765Z,100551.66
2022-10-02T05:24:51.599Z,100551.66
2022-10-02T05:27:39.362Z,100562.16
2022-10-02T05:30:16.185Z,100567.47
2022-10-02T05:32:57.400Z,100563.91
2022-10-02T05:35:24.190Z,100557.59
2022-10-02T05:38:13.943Z,100561.91
2022-10-02T05:40:53.197Z,100563.59
2022-10-02T05:43:31.993Z,100554.72
2022-10-02T05:46:14.652Z,100565.13
2022-10-02T05:48:46.004Z,100568.66
2022-10-02T05:52:02.429Z,100570.13
2022-10-02T05:55:04.482Z,100576.37
2022-10-02T05:57:36.659Z,100566.34
2022-10-02T06:00:08.447Z,100568.91
2022-10-02T06:02:48.338Z,100563.50
2022-10-02T06:05:30.640Z,100568.66
2022-10-02T06:08:02.821Z,100579.13
2022-10-02T06:10:40.884Z,100586.84
2022-10-02T06:13:15.738Z,100595.63
2022-10-02T06:15:49.673Z,100590.13
2022-10-02T06:18:22.378Z,100583.03
2022-10-02T06:20:53.985Z,100594.28
2022-10-02T06:23:43.733Z,100584.41
2022-10-02T06:26:16.739Z,100598.41
2022-10-02T06:28:56.472Z,100596.44
2022-10-02T06:32:18.227Z,100599.66
2022-10-02T06:34:47.949Z,100596.78
2022-10-02T06:37:36.472Z,100601.97
2022-10-02T06:40:18.805Z,100606.31
2022-10-02T06:42:55.672Z,100613.00
2022-10-02T06:45:25.261Z,100612.69
2022-10-02T06:48:03.083Z,100608.75
2022-10-02T06:51:03.728Z,100623.41
2022-10-02T06:54:09.219Z,100627.44
2022-10-02T06:57:13.626Z,100635.72
2022-10-02T07:00:12.356Z,100640.69
2022-10-02T07:02:57.486Z,100640.78
2022-10-02T07:05:53.334Z,100646.41
2022-10-02T07:08:45.203Z,100651.56
2022-10-02T07:11:44.596Z,100647.47
2022-10-02T07:14:35.998Z,100647.94
2022-10-02T07:17:22.097Z,100655.78
2022-10-02T07:20:07.979Z,100645.50
2022-10-02T07:22:50.019Z,100658.34
2022-10-02T07:25:47.022Z,100647.66
2022-10-02T07:28:45.708Z,100662.16
2022-10-02T07:31:46.890Z,100659.91
2022-10-02T07:34:39.850Z,100667.37
2022-10-02T07:37:17.621Z,100672.06
2022-10-02T07:40:12.442Z,100671.44
2022-10-02T07:42:49.104Z,100675.06
2022-10-02T07:45:26.465Z,100677.22
2022-10-02T07:48:08.082Z,100677.44
2022-10-02T07:50:51.214Z,100681.37
2022-10-02T07:53:44.985Z,100689.47
2022-10-02T07:56:20.212Z,100693.28
2022-10-02T07:58:54.859Z,100696.09
2022-10-02T08:01:26.089Z,100694.59
2022-10-02T08:03:57.166Z,100696.03
2022-10-02T08:06:24.316Z,100696.47
2022-10-02T08:08:55.359Z,100694.50
2022-10-02T08:11:39.526Z,100691.50
2022-10-02T08:14:19.787Z,100686.91
2022-10-02T08:16:52.521Z,100697.31
2022-10-02T08:19:23.102Z,100700.56
2022-10-02T08:21:58.407Z,100697.66
2022-10-02T08:24:30.768Z,100698.13
2022-10-02T08:27:13.567Z,100700.84
2022-10-02T08:29:47.233Z,100703.97
2022-10-02T08:32:14.932Z,100692.72
2022-10-02T08:34:44.158Z,100698.09
2022-10-02T08:37:35.979Z,100708.37
2022-10-02T08:40:36.153Z,100705.97
2022-10-02T08:43:27.228Z,100697.72
2022-10-02T08:46:18.325Z,100706.50
2022-10-02T08:48:58.385Z,100706.03
2022-10-02T08:51:44.622Z,100718.63
2022-10-02T08:54:29.781Z,100723.22
2022-10-02T08:57:02.921Z,100710.44
2022-10-02T08:59:39.042Z,100711.16
2022-10-02T09:02:27.793Z,100701.75
2022-10-02T09:05:20.879Z,100704.06
2022-10-02T09:08:26.442Z,100706.97
2022-10-02T09:11:20.966Z,100704.16
2022-10-02T09:14:11.707Z,100706.56
2022-10-02T09:16:41.201Z,100700.00
2022-10-02T09:19:43.320Z,100704.44
2022-10-02T09:22:31.416Z,100697.16
2022-10-02T09:25:22.598Z,100695.38
2022-10-02T09:28:34.877Z,100698.34
2022-10-02T09:31:04.604Z,100695.94
2022-10-02T09:33:39.806Z,100692.34
2022-10-02T09:36:46.069Z,100705.72
2022-10-02T09:39:43.889Z,100701.81
2022-10-02T09:42:28.751Z,100694.00
2022-10-02T09:45:13.950Z,100704.03
2022-10-02T09:48:01.558Z,100692.97
2022-10-02T09:50:35.097Z,100707.59
2022-10-02T09:53:29.468Z,100706.97
2022-10-02T09:55:58.939Z,100707.75
2022-10-02T09:59:21.472Z,100703.72
2022-10-02T10:02:04.230Z,100701.25
2022-10-02T10:05:05.074Z,100700.47
2022-10-02T10:08:09.373Z,100701.06
2022-10-02T10:11:00.611Z,100697.09
2022-10-02T10:13:48.729Z,100701.50
2022-10-02T10:16:44.998Z,100687.56
2022-10-02T10:19:34.729Z,100682.13
2022-10-02T10:22:43.116Z,100691.56
2022-10-02T10:25:30.121Z,100692.53
2022-10-02T10:28:21.551Z,100684.41
2022-10-02T10:31:20.901Z,100673.19
2022-10-02T10:34:08.845Z,100682.69
2022-10-02T10:37:15.143Z,100677.22
2022-10-02T10:39:57.065Z,100674.87
2022-10-02T10:43:03.413Z,100663.63
2022-10-02T10:45:48.380Z,100665.09
2022-10-02T10:48:27.550Z,100670.97
2022-10-02T10:51:00.507Z,100665.94
2022-10-02T10:54:15.400Z,100660.72
2022-10-02T10:57:00.640Z,100660.31
2022-10-02T10:59:57.682Z,100654.69
2022-10-02T11:02:46.228Z,100654.50
2022-10-02T11:05:39.653Z,100661.13
2022-10-02T11:08:12.848Z,100655.19
2022-10-02T11:11:11.949Z,100660.91
2022-10-02T11:14:05.678Z,100647.06
2022-10-02T11:16:58.373Z,100640.84
2022-10-02T11:19:53.013Z,100650.41
2022-10-02T11:22:37.811Z,100659.53
2022-10-02T11:25:42.990Z,100664.19
2022-10-02T11:28:51.782Z,100651.56
2022-10-02T11:31:25.259Z,100638.28
2022-10-02T11:34:13.350Z,100633.81
2022-10-02T11:37:13.987Z,100631.06
2022-10-02T11:39:59.995Z,100629.38
2022-10-02T11:43:04.285Z,100646.94
2022-10-02T11:45:37.388Z,100645.50
2022-10-02T11:48:40.832Z,100643.44
2022-10-02T11:51:22.622Z,100640.87
2022-10-02T11:54:17.449Z,100643.16
2022-10-02T11:57:05.983Z,100638.28
2022-10-02T11:59:47.827Z,100637.09
2022-10-02T12:02:34.300Z,100631.91
2022-10-02T12:05:05.802Z,100626.44
2022-10-02T12:07:52.314Z,100624.66
2022-10-02T12:10:31.273Z,100625.22
2022-10-02T12:13:21.085Z,100617.88
2022-10-02T12:16:14.204Z,100614.38
2022-10-02T12:19:25.424Z,100615.94
2022-10-02T12:22:25.720Z,100607.00
2022-10-02T12:25:32.959Z,100603.94
2022-10-02T12:28:22.472Z,100604.62
2022-10-02T12:30:55.497Z,100600.50
2022-10-02T12:33:36.718Z,100585.25
2022-10-02T12:36:36.911Z,100586.03
2022-10-02T12:39:35.457Z,100586.63
2022-10-02T12:42:41.075Z,100585.81
2022-10-02T12:45:28.320Z,100582.66
2022-10-02T12:48:03.965Z,100566.19
2022-10-02T12:50:51.743Z,100573.41
2022-10-02T12:53:55.709Z,100575.16
2022-10-02T12:56:41.575Z,100569.72
2022-10-02T12:59:37.485Z,100572.81
2022-10-02T13:03:07.073Z,100561.81
2022-10-02T13:06:22.002Z,100560.94
2022-10-02T13:11:56.117Z,100540.97
2022-10-02T13:15:02.028Z,100540.97
2022-10-02T13:17:48.115Z,100561.16
2022-10-02T13:20:45.149Z,100547.25
2022-10-02T13:23:32.104Z,100542.56
2022-10-02T13:26:17.078Z,100538.47
2022-10-02T13:29:09.496Z,100536.06
2022-10-02T13:32:05.917Z,100526.25
2022-10-02T13:35:31.400Z,100529.78
2022-10-02T13:38:07.447Z,100537.88
2022-10-02T13:40:49.887Z,100541.81
2022-10-02T13:43:25.806Z,100521.69
2022-10-02T13:46:07.752Z,100518.78
2022-10-02T13:48:55.211Z,100515.91
2022-10-02T13:51:27.933Z,100516.97
2022-10-02T13:54:00.654Z,100509.38
2022-10-02T13:56:32.865Z,100509.72
2022-10-02T13:59:14.742Z,100512.91
2022-10-02T14:01:45.181Z,100512.81
2022-10-02T14:04:20.400Z,100509.66
2022-10-02T14:06:50.087Z,100508.50
2022-10-02T14:09:52.311Z,100503.53
2022-10-02T14:12:31.765Z,100510.16
2022-10-02T14:15:07.230Z,100515.53
2022-10-02T14:17:40.445Z,100523.12
2022-10-02T14:20:31.864Z,100515.22
2022-10-02T14:23:01.738Z,100509.03
2022-10-02T14:26:00.711Z,100506.25
2022-10-02T14:28:46.386Z,100502.47
2022-10-02T14:31:38.501Z,100503.81
2022-10-02T14:34:14.675Z,100508.19
2022-10-02T14:36:50.205Z,100501.37
2022-10-02T14:39:34.445Z,100491.03
2022-10-02T14:42:14.291Z,100483.59
2022-10-02T14:45:05.384Z,100482.47
2022-10-02T14:47:48.324Z,100492.81
2022-10-02T14:50:36.375Z,100489.44
2022-10-02T14:53:40.507Z,100486.38
2022-10-02T14:56:25.539Z,100479.38
2022-10-02T14:58:58.491Z,100465.72
2022-10-02T15:01:29.757Z,100468.91
2022-10-02T15:04:04.573Z,100473.38
2022-10-02T15:07:06.780Z,100475.75
2022-10-02T15:09:42.745Z,100468.63
2022-10-02T15:12:24.253Z,100466.31
2022-10-02T15:15:05.889Z,100464.94
2022-10-02T15:17:57.401Z,100467.06
2022-10-02T15:21:00.486Z,100462.47
2022-10-02T15:23:33.179Z,100463.87
2022-10-02T15:25:59.907Z,100467.63
2022-10-02T15:28:37.371Z,100450.50
2022-10-02T15:31:13.058Z,100449.00
2022-10-02T15:33:52.976Z,100442.44
2022-10-02T15:36:31.737Z,100439.91
2022-10-02T15:39:13.995Z,100445.69
2022-10-02T15:41:47.269Z,100441.19
2022-10-02T15:44:16.971Z,100437.16
2022-10-02T15:46:52.321Z,100438.62
2022-10-02T15:49:31.350Z,100443.00
2022-10-02T15:52:07.236Z,100443.63
2022-10-02T15:54:51.019Z,100442.78
2022-10-02T15:57:52.099Z,100444.59
2022-10-02T16:00:21.800Z,100444.28
2022-10-02T16:03:00.763Z,100444.13
2022-10-02T16:05:43.545Z,100450.81
2022-10-02T16:08:31.921Z,100449.09
2022-10-02T16:11:36.153Z,100443.09
2022-10-02T16:14:06.311Z,100441.94
2022-10-02T16:16:58.650Z,100440.97
2022-10-02T16:19:34.179Z,100426.47
2022-10-02T16:22:32.740Z,100425.53
2022-10-02T16:25:20.999Z,100431.22
2022-10-02T16:28:11.969Z,100431.75
2022-10-02T16:30:52.081Z,100439.66
2022-10-02T16:33:23.732Z,100442.66
2022-10-02T16:35:53.417Z,100439.12
2022-10-02T16:39:05.678Z,100449.12
2022-10-02T16:42:11.374Z,100441.97
2022-10-02T16:44:56.474Z,100444.28
2022-10-02T16:47:50.521Z,100437.03
2022-10-02T16:50:45.570Z,100438.97
2022-10-02T16:53:28.295Z,100435.44
2022-10-02T16:56:13.827Z,100433.63
2022-10-02T16:58:58.029Z,100431.59
2022-10-02T17:01:33.725Z,100430.91
2022-10-02T17:04:15.570Z,100427.13
2022-10-02T17:06:49.835Z,100431.41
2022-10-02T17:09:31.820Z,100434.19
2022-10-02T17:12:23.762Z,100429.72
2022-10-02T17:15:01.003Z,100423.50
2022-10-02T17:18:03.343Z,100433.53
2022-10-02T17:20:40.679Z,100422.16
2022-10-02T17:23:16.636Z,100431.59
2022-10-02T17:26:08.814Z,100425.38
2022-10-02T17:28:42.605Z,100425.31
2022-10-02T17:31:18.677Z,100420.69
2022-10-02T17:33:56.329Z,100419.97
2022-10-02T17:36:45.041Z,100420.91
2022-10-02T17:39:47.409Z,100415.47
2022-10-02T17:42:43.366Z,100416.44
2022-10-02T17:45:36.887Z,100418.22
2022-10-02T17:48:19.359Z,100413.06
2022-10-02T17:51:14.939Z,100421.22
2022-10-02T17:54:28.989Z,100432.66
2022-10-02T17:57:36.340Z,100415.94
2022-10-02T18:00:20.577Z,100434.38
2022-10-02T18:03:21.136Z,100426.47
2022-10-02T18:05:58.188Z,100422.84
2022-10-02T18:09:02.172Z,100420.53
2022-10-02T18:11:51.964Z,100421.38
2022-10-02T18:14:37.544Z,100427.50
2022-10-02T18:17:11.952Z,100427.59
2022-10-02T18:20:23.039Z,100421.97
2022-10-02T18:23:01.187Z,100438.09
2022-10-02T18:25:59.694Z,100431.16
2022-10-02T18:28:43.140Z,100435.53
2022-10-02T18:31:54.043Z,100434.56
2022-10-02T18:34:19.170Z,100434.81
2022-10-02T18:36:59.999Z,100440.31
2022-10-02T18:40:11.166Z,100435.03
2022-10-02T18:43:15.652Z,100442.44
2022-10-02T18:45:48.887Z,100448.66
2022-10-02T18:48:39.706Z,100440.72
2022-10-02T18:51:32.900Z,100442.47
2022-10-02T18:55:15.597Z,100437.28
2022-10-02T18:58:01.200Z,100438.91
2022-10-02T19:01:00.359Z,100435.50
2022-10-02T19:03:43.651Z,100429.25
2022-10-02T19:06:26.088Z,100431.19
2022-10-02T19:09:25.642Z,100429.66
2022-10-02T19:11:58.221Z,100421.47
2022-10-02T19:14:35.453Z,100430.16
2022-10-02T19:17:19.789Z,100424.03
2022-10-02T19:19:46.714Z,100424.13
2022-10-02T19:22:38.496Z,100411.75
2022-10-02T19:25:13.733Z,100421.62
2022-10-02T19:27:43.686Z,100412.12
2022-10-02T19:30:31.564Z,100406.13
2022-10-02T19:33:03.845Z,100404.09
2022-10-02T19:35:33.861Z,100399.78
2022-10-02T19:38:09.715Z,100395.41
2022-10-02T19:40:37.297Z,100392.91
2022-10-02T19:43:29.378Z,100364.03
2022-10-02T19:46:01.574Z,100394.69
2022-10-02T19:48:30.986Z,100399.19
2022-10-02T19:51:01.799Z,100396.59
2022-10-02T19:53:38.068Z,100389.47
2022-10-02T19:56:13.756Z,100387.59
2022-10-02T19:58:48.766Z,100373.78
2022-10-02T20:01:21.838Z,100389.59
2022-10-02T20:03:55.248Z,100383.31
2022-10-02T20:06:23.918Z,100372.84
2022-10-02T20:09:01.318Z,100367.78
2022-10-02T20:12:06.966Z,100377.56
2022-10-02T20:14:50.352Z,100380.09
2022-10-02T20:17:17.874Z,100373.88
2022-10-02T20:19:45.817Z,100381.00
2022-10-02T20:22:34.431Z,100372.16
2022-10-02T20:25:20.241Z,100379.41
2022-10-02T20:27:57.459Z,100375.06
2022-10-02T20:30:30.151Z,100374.31
2022-10-02T20:33:15.422Z,100374.12
2022-10-02T20:35:49.275Z,100382.25
2022-10-02T20:38:25.407Z,100376.19
2022-10-02T20:40:54.621Z,100367.31
2022-10-02T20:43:26.637Z,100377.16
2022-10-02T20:46:49.433Z,100369.37
2022-10-02T20:49:47.844Z,100369.37
2022-10-02T20:52:28.999Z,100367.59
2022-10-02T20:54:59.866Z,100367.59
2022-10-02T20:58:00.749Z,100363.31
2022-10-02T21:00:50.200Z,100369.59
2022-10-02T21:03:26.199Z,100370.75
2022-10-02T21:06:22.246Z,100364.88
2022-10-02T21:08:56.024Z,100372.16
2022-10-02T21:11:35.800Z,100377.56
2022-10-02T21:14:12.348Z,100384.62
2022-10-02T21:17:04.073Z,100377.47
2022-10-02T21:19:45.753Z,100381.03
2022-10-02T21:22:50.968Z,100382.09
2022-10-02T21:25:58.868Z,100383.13
2022-10-02T21:28:29.146Z,100371.69
2022-10-02T21:31:28.271Z,100373.50
2022-10-02T21:34:36.480Z,100374.28
2022-10-02T21:37:27.019Z,100382.22
2022-10-02T21:42:56.511Z,100383.22
2022-10-02T21:45:47.943Z,100383.22
2022-10-02T21:48:33.615Z,100379.72
2022-10-02T21:51:18.497Z,100385.97
2022-10-02T21:54:15.037Z,100377.25
2022-10-02T21:57:03.151Z,100374.53
2022-10-02T21:59:46.231Z,100375.38
2022-10-02T22:02:40.535Z,100363.81
2022-10-02T22:05:20.632Z,100363.03
2022-10-02T22:08:03.282Z,100365.81
2022-10-02T22:10:55.390Z,100367.72
2022-10-02T22:13:43.869Z,100368.50
2022-10-02T22:16:22.680Z,100365.13
2022-10-02T22:18:53.030Z,100371.56
2022-10-02T22:21:51.940Z,100371.69
2022-10-02T22:24:46.277Z,100378.84
2022-10-02T22:27:34.779Z,100381.56
2022-10-02T22:30:01.948Z,100372.81
2022-10-02T22:33:11.210Z,100371.03
2022-10-02T22:35:49.259Z,100374.38
2022-10-02T22:38:35.784Z,100362.69
2022-10-02T22:41:24.468Z,100359.97
2022-10-02T22:43:53.579Z,100354.56
2022-10-02T22:46:47.676Z,100358.94
2022-10-02T22:49:27.211Z,100369.69
2022-10-02T22:52:12.872Z,100337.78
2022-10-02T22:54:49.237Z,100329.88
2022-10-02T22:57:20.365Z,100325.63
2022-10-02T22:59:53.019Z,100326.66
2022-10-02T23:02:29.049Z,100319.69
2022-10-02T23:05:01.932Z,100340.19
2022-10-02T23:07:31.104Z,100339.50
2022-10-02T23:10:13.780Z,100340.19
2022-10-02T23:12:49.663Z,100339.38
2022-10-02T23:15:43.034Z,100337.59
2022-10-02T23:18:39.722Z,100342.13
2022-10-02T23:21:36.187Z,100339.63
2022-10-02T23:24:06.182Z,100329.13
2022-10-02T23:26:38.587Z,100328.28
2022-10-02T23:29:14.744Z,100333.75
2022-10-02T23:31:58.215Z,100339.00
2022-10-02T23:34:40.407Z,100335.59
2022-10-02T23:37:26.208Z,100332.97
2022-10-02T23:40:19.539Z,100335.00
2022-10-02T23:42:57.046Z,100344.84
2022-10-02T23:45:31.263Z,100349.25
2022-10-02T23:48:11.664Z,100347.59
2022-10-02T23:50:53.045Z,100343.22
2022-10-02T23:54:05.141Z,100345.94
2022-10-02T23:57:02.170Z,100348.53
